sensor_id;sensor_type;location;lat;lon;timestamp;temperature;humidity
33023;DHT22;19390;51.460;5.710;2024-02-16T00:01:59;11.20;99.90
33023;DHT22;19390;51.460;5.710;2024-02-16T00:04:25;11.30;99.90
33023;DHT22;19390;51.460;5.710;2024-02-16T00:06:50;11.20;99.90
33023;DHT22;19390;51.460;5.710;2024-02-16T00:09:16;11.30;99.90
33023;DHT22;19390;51.460;5.710;2024-02-16T00:11:42;11.20;99.90
33023;DHT22;19390;51.460;5.710;2024-02-16T00:14:09;11.10;99.90
33023;DHT22;19390;51.460;5.710;2024-02-16T00:16:34;11.10;99.90
33023;DHT22;19390;51.460;5.710;2024-02-16T00:19:00;11.00;99.90
33023;DHT22;19390;51.460;5.710;2024-02-16T00:21:25;11.00;99.90
33023;DHT22;19390;51.460;5.710;2024-02-16T00:23:51;11.10;99.90
33023;DHT22;19390;51.460;5.710;2024-02-16T00:26:17;11.10;99.90
33023;DHT22;19390;51.460;5.710;2024-02-16T00:28:42;11.00;99.90
33023;DHT22;19390;51.460;5.710;2024-02-16T00:31:08;11.00;99.90
33023;DHT22;19390;51.460;5.710;2024-02-16T00:33:34;11.00;99.90
33023;DHT22;19390;51.460;5.710;2024-02-16T00:36:00;11.00;99.90
33023;DHT22;19390;51.460;5.710;2024-02-16T00:38:25;11.00;99.90
33023;DHT22;19390;51.460;5.710;2024-02-16T00:40:51;11.00;99.90
33023;DHT22;19390;51.460;5.710;2024-02-16T00:43:17;11.00;99.90
33023;DHT22;19390;51.460;5.710;2024-02-16T00:45:43;11.10;99.90
33023;DHT22;19390;51.460;5.710;2024-02-16T00:48:10;11.10;99.90
33023;DHT22;19390;51.460;5.710;2024-02-16T00:50:36;11.00;99.90
33023;DHT22;19390;51.460;5.710;2024-02-16T00:53:02;10.90;99.90
33023;DHT22;19390;51.460;5.710;2024-02-16T00:55:27;11.00;99.90
33023;DHT22;19390;51.460;5.710;2024-02-16T00:57:53;11.10;99.90
33023;DHT22;19390;51.460;5.710;2024-02-16T01:00:19;11.00;99.90
33023;DHT22;19390;51.460;5.710;2024-02-16T01:02:45;11.00;99.90
33023;DHT22;19390;51.460;5.710;2024-02-16T01:05:10;10.90;99.90
33023;DHT22;19390;51.460;5.710;2024-02-16T01:07:37;10.80;99.90
33023;DHT22;19390;51.460;5.710;2024-02-16T01:10:02;10.80;99.90
33023;DHT22;19390;51.460;5.710;2024-02-16T01:12:31;10.80;99.90
33023;DHT22;19390;51.460;5.710;2024-02-16T01:14:57;10.80;99.90
33023;DHT22;19390;51.460;5.710;2024-02-16T01:17:22;10.80;99.90
33023;DHT22;19390;51.460;5.710;2024-02-16T01:19:48;10.70;99.90
33023;DHT22;19390;51.460;5.710;2024-02-16T01:22:14;10.80;99.90
33023;DHT22;19390;51.460;5.710;2024-02-16T01:24:39;10.70;99.90
33023;DHT22;19390;51.460;5.710;2024-02-16T01:27:05;10.70;99.90
33023;DHT22;19390;51.460;5.710;2024-02-16T01:29:30;10.70;99.90
33023;DHT22;19390;51.460;5.710;2024-02-16T01:31:58;10.70;99.90
33023;DHT22;19390;51.460;5.710;2024-02-16T01:34:24;10.70;99.90
33023;DHT22;19390;51.460;5.710;2024-02-16T01:36:49;10.70;99.90
33023;DHT22;19390;51.460;5.710;2024-02-16T01:39:15;10.70;99.90
33023;DHT22;19390;51.460;5.710;2024-02-16T01:41:40;10.70;99.90
33023;DHT22;19390;51.460;5.710;2024-02-16T01:44:06;10.70;99.90
33023;DHT22;19390;51.460;5.710;2024-02-16T01:46:33;10.60;99.90
33023;DHT22;19390;51.460;5.710;2024-02-16T01:49:00;10.60;99.90
33023;DHT22;19390;51.460;5.710;2024-02-16T01:51:25;10.60;99.90
33023;DHT22;19390;51.460;5.710;2024-02-16T01:53:52;10.70;99.90
33023;DHT22;19390;51.460;5.710;2024-02-16T01:56:20;10.60;99.90
33023;DHT22;19390;51.460;5.710;2024-02-16T01:58:47;10.60;99.90
33023;DHT22;19390;51.460;5.710;2024-02-16T02:01:13;10.60;99.90
33023;DHT22;19390;51.460;5.710;2024-02-16T02:03:38;10.70;99.90
33023;DHT22;19390;51.460;5.710;2024-02-16T02:06:04;10.80;99.90
33023;DHT22;19390;51.460;5.710;2024-02-16T02:08:30;10.80;99.90
33023;DHT22;19390;51.460;5.710;2024-02-16T02:10:55;10.80;99.90
33023;DHT22;19390;51.460;5.710;2024-02-16T02:13:21;10.80;99.90
33023;DHT22;19390;51.460;5.710;2024-02-16T02:15:50;10.90;99.90
33023;DHT22;19390;51.460;5.710;2024-02-16T02:18:15;10.90;99.90
33023;DHT22;19390;51.460;5.710;2024-02-16T02:20:41;10.90;99.90
33023;DHT22;19390;51.460;5.710;2024-02-16T02:23:07;10.90;99.90
33023;DHT22;19390;51.460;5.710;2024-02-16T02:25:33;10.90;99.90
33023;DHT22;19390;51.460;5.710;2024-02-16T02:28:00;10.90;99.90
33023;DHT22;19390;51.460;5.710;2024-02-16T02:30:28;10.90;99.90
33023;DHT22;19390;51.460;5.710;2024-02-16T02:32:54;10.90;99.90
33023;DHT22;19390;51.460;5.710;2024-02-16T02:35:19;10.90;99.90
33023;DHT22;19390;51.460;5.710;2024-02-16T02:37:45;11.00;99.90
33023;DHT22;19390;51.460;5.710;2024-02-16T02:40:11;11.00;99.90
33023;DHT22;19390;51.460;5.710;2024-02-16T02:42:37;11.00;99.90
33023;DHT22;19390;51.460;5.710;2024-02-16T02:45:04;11.00;99.90
33023;DHT22;19390;51.460;5.710;2024-02-16T02:47:30;11.10;99.90
33023;DHT22;19390;51.460;5.710;2024-02-16T02:49:55;11.10;99.90
33023;DHT22;19390;51.460;5.710;2024-02-16T02:52:21;11.20;99.90
33023;DHT22;19390;51.460;5.710;2024-02-16T02:54:47;11.20;99.90
33023;DHT22;19390;51.460;5.710;2024-02-16T02:57:12;11.20;99.90
33023;DHT22;19390;51.460;5.710;2024-02-16T02:59:38;11.20;99.90
33023;DHT22;19390;51.460;5.710;2024-02-16T03:02:04;11.30;99.90
33023;DHT22;19390;51.460;5.710;2024-02-16T03:04:29;11.30;99.90
33023;DHT22;19390;51.460;5.710;2024-02-16T03:06:55;11.30;99.90
33023;DHT22;19390;51.460;5.710;2024-02-16T03:09:21;11.20;99.90
33023;DHT22;19390;51.460;5.710;2024-02-16T03:11:48;11.20;99.90
33023;DHT22;19390;51.460;5.710;2024-02-16T03:14:13;11.30;99.90
33023;DHT22;19390;51.460;5.710;2024-02-16T03:16:39;11.20;99.90
33023;DHT22;19390;51.460;5.710;2024-02-16T03:19:07;11.20;99.90
33023;DHT22;19390;51.460;5.710;2024-02-16T03:21:36;11.20;99.90
33023;DHT22;19390;51.460;5.710;2024-02-16T03:24:02;11.20;99.90
33023;DHT22;19390;51.460;5.710;2024-02-16T03:26:29;11.10;99.90
33023;DHT22;19390;51.460;5.710;2024-02-16T03:28:55;11.10;99.90
33023;DHT22;19390;51.460;5.710;2024-02-16T03:31:23;11.10;99.90
33023;DHT22;19390;51.460;5.710;2024-02-16T03:33:52;11.00;99.90
33023;DHT22;19390;51.460;5.710;2024-02-16T03:36:18;11.00;99.90
33023;DHT22;19390;51.460;5.710;2024-02-16T03:38:45;11.00;99.90
33023;DHT22;19390;51.460;5.710;2024-02-16T03:41:14;11.00;99.90
33023;DHT22;19390;51.460;5.710;2024-02-16T03:43:40;11.00;99.90
33023;DHT22;19390;51.460;5.710;2024-02-16T03:46:06;11.00;99.90
33023;DHT22;19390;51.460;5.710;2024-02-16T03:48:32;11.10;99.90
33023;DHT22;19390;51.460;5.710;2024-02-16T03:50:57;11.10;99.90
33023;DHT22;19390;51.460;5.710;2024-02-16T03:53:23;11.10;99.90
33023;DHT22;19390;51.460;5.710;2024-02-16T03:55:49;11.20;99.90
33023;DHT22;19390;51.460;5.710;2024-02-16T03:58:15;11.10;99.90
33023;DHT22;19390;51.460;5.710;2024-02-16T04:00:41;11.10;99.90
33023;DHT22;19390;51.460;5.710;2024-02-16T04:03:06;11.10;99.90
33023;DHT22;19390;51.460;5.710;2024-02-16T04:05:32;11.20;99.90
33023;DHT22;19390;51.460;5.710;2024-02-16T04:08:00;11.20;99.90
33023;DHT22;19390;51.460;5.710;2024-02-16T04:10:28;11.30;99.90
33023;DHT22;19390;51.460;5.710;2024-02-16T04:12:56;11.30;99.90
33023;DHT22;19390;51.460;5.710;2024-02-16T04:15:22;11.30;99.90
33023;DHT22;19390;51.460;5.710;2024-02-16T04:17:48;11.40;99.90
33023;DHT22;19390;51.460;5.710;2024-02-16T04:20:15;11.40;99.90
33023;DHT22;19390;51.460;5.710;2024-02-16T04:22:41;11.40;99.90
33023;DHT22;19390;51.460;5.710;2024-02-16T04:25:07;11.30;99.90
33023;DHT22;19390;51.460;5.710;2024-02-16T04:27:34;11.30;99.90
33023;DHT22;19390;51.460;5.710;2024-02-16T04:30:00;11.30;99.90
33023;DHT22;19390;51.460;5.710;2024-02-16T04:32:26;11.20;99.90
33023;DHT22;19390;51.460;5.710;2024-02-16T04:34:52;11.20;99.90
33023;DHT22;19390;51.460;5.710;2024-02-16T04:37:18;11.20;99.90
33023;DHT22;19390;51.460;5.710;2024-02-16T04:39:44;11.20;99.90
33023;DHT22;19390;51.460;5.710;2024-02-16T04:42:10;11.20;99.90
33023;DHT22;19390;51.460;5.710;2024-02-16T04:44:37;11.20;99.90
33023;DHT22;19390;51.460;5.710;2024-02-16T04:47:05;11.20;99.90
33023;DHT22;19390;51.460;5.710;2024-02-16T04:49:31;11.20;99.90
33023;DHT22;19390;51.460;5.710;2024-02-16T04:51:57;11.30;99.90
33023;DHT22;19390;51.460;5.710;2024-02-16T04:54:23;11.30;99.90
33023;DHT22;19390;51.460;5.710;2024-02-16T04:56:49;11.30;99.90
33023;DHT22;19390;51.460;5.710;2024-02-16T04:59:16;11.30;99.90
33023;DHT22;19390;51.460;5.710;2024-02-16T05:01:43;11.20;99.90
33023;DHT22;19390;51.460;5.710;2024-02-16T05:04:10;11.20;99.90
33023;DHT22;19390;51.460;5.710;2024-02-16T05:06:43;11.20;99.90
33023;DHT22;19390;51.460;5.710;2024-02-16T05:09:09;11.20;99.90
33023;DHT22;19390;51.460;5.710;2024-02-16T05:11:35;11.20;99.90
33023;DHT22;19390;51.460;5.710;2024-02-16T05:14:00;11.20;99.90
33023;DHT22;19390;51.460;5.710;2024-02-16T05:16:27;11.20;99.90
33023;DHT22;19390;51.460;5.710;2024-02-16T05:18:52;11.10;99.90
33023;DHT22;19390;51.460;5.710;2024-02-16T05:21:18;11.10;99.90
33023;DHT22;19390;51.460;5.710;2024-02-16T05:23:44;11.20;99.90
33023;DHT22;19390;51.460;5.710;2024-02-16T05:26:09;11.20;99.90
33023;DHT22;19390;51.460;5.710;2024-02-16T05:28:35;11.40;99.90
33023;DHT22;19390;51.460;5.710;2024-02-16T05:31:14;11.30;99.90
33023;DHT22;19390;51.460;5.710;2024-02-16T05:33:50;11.40;99.90
33023;DHT22;19390;51.460;5.710;2024-02-16T05:36:20;11.40;99.90
33023;DHT22;19390;51.460;5.710;2024-02-16T05:38:49;11.40;99.90
33023;DHT22;19390;51.460;5.710;2024-02-16T05:41:17;11.50;99.90
33023;DHT22;19390;51.460;5.710;2024-02-16T05:43:43;11.50;99.90
33023;DHT22;19390;51.460;5.710;2024-02-16T05:46:17;11.50;99.90
33023;DHT22;19390;51.460;5.710;2024-02-16T05:48:43;11.50;99.90
33023;DHT22;19390;51.460;5.710;2024-02-16T05:51:09;11.60;99.90
33023;DHT22;19390;51.460;5.710;2024-02-16T05:53:38;11.60;99.90
33023;DHT22;19390;51.460;5.710;2024-02-16T05:56:04;11.70;99.90
33023;DHT22;19390;51.460;5.710;2024-02-16T05:58:30;11.70;99.90
33023;DHT22;19390;51.460;5.710;2024-02-16T06:00:56;11.60;99.90
33023;DHT22;19390;51.460;5.710;2024-02-16T06:03:23;11.60;99.90
33023;DHT22;19390;51.460;5.710;2024-02-16T06:05:48;11.70;99.90
33023;DHT22;19390;51.460;5.710;2024-02-16T06:08:14;11.60;99.90
33023;DHT22;19390;51.460;5.710;2024-02-16T06:10:43;11.50;99.90
33023;DHT22;19390;51.460;5.710;2024-02-16T06:13:08;11.50;99.90
33023;DHT22;19390;51.460;5.710;2024-02-16T06:15:34;11.50;99.90
33023;DHT22;19390;51.460;5.710;2024-02-16T06:18:00;11.40;99.90
33023;DHT22;19390;51.460;5.710;2024-02-16T06:20:26;11.50;99.90
33023;DHT22;19390;51.460;5.710;2024-02-16T06:22:52;11.50;99.90
33023;DHT22;19390;51.460;5.710;2024-02-16T06:25:18;11.50;99.90
33023;DHT22;19390;51.460;5.710;2024-02-16T06:27:44;11.50;99.90
33023;DHT22;19390;51.460;5.710;2024-02-16T06:30:11;11.50;99.90
33023;DHT22;19390;51.460;5.710;2024-02-16T06:32:39;11.60;99.90
33023;DHT22;19390;51.460;5.710;2024-02-16T06:35:06;11.60;99.90
33023;DHT22;19390;51.460;5.710;2024-02-16T06:37:32;11.60;99.90
33023;DHT22;19390;51.460;5.710;2024-02-16T06:39:58;11.70;99.90
33023;DHT22;19390;51.460;5.710;2024-02-16T06:42:24;11.90;99.90
33023;DHT22;19390;51.460;5.710;2024-02-16T06:44:49;11.90;99.90
33023;DHT22;19390;51.460;5.710;2024-02-16T06:47:15;12.10;99.90
33023;DHT22;19390;51.460;5.710;2024-02-16T06:49:41;12.40;99.90
33023;DHT22;19390;51.460;5.710;2024-02-16T06:52:06;12.50;99.90
33023;DHT22;19390;51.460;5.710;2024-02-16T06:54:32;12.70;99.90
33023;DHT22;19390;51.460;5.710;2024-02-16T06:56:58;12.80;99.90
33023;DHT22;19390;51.460;5.710;2024-02-16T06:59:24;12.90;99.90
33023;DHT22;19390;51.460;5.710;2024-02-16T07:01:49;13.10;99.90
33023;DHT22;19390;51.460;5.710;2024-02-16T07:04:15;13.00;99.90
33023;DHT22;19390;51.460;5.710;2024-02-16T07:06:40;13.00;99.90
33023;DHT22;19390;51.460;5.710;2024-02-16T07:09:06;12.90;99.90
33023;DHT22;19390;51.460;5.710;2024-02-16T07:11:32;12.80;99.90
33023;DHT22;19390;51.460;5.710;2024-02-16T07:14:00;12.90;99.90
33023;DHT22;19390;51.460;5.710;2024-02-16T07:16:27;12.80;99.90
33023;DHT22;19390;51.460;5.710;2024-02-16T07:18:53;13.00;99.90
33023;DHT22;19390;51.460;5.710;2024-02-16T07:21:18;13.00;99.90
33023;DHT22;19390;51.460;5.710;2024-02-16T07:23:46;13.10;99.90
33023;DHT22;19390;51.460;5.710;2024-02-16T07:26:11;13.10;99.90
33023;DHT22;19390;51.460;5.710;2024-02-16T07:28:38;13.10;99.90
33023;DHT22;19390;51.460;5.710;2024-02-16T07:31:05;13.20;99.90
33023;DHT22;19390;51.460;5.710;2024-02-16T07:33:31;13.20;99.90
33023;DHT22;19390;51.460;5.710;2024-02-16T07:35:57;13.20;99.90
33023;DHT22;19390;51.460;5.710;2024-02-16T07:38:22;13.10;99.90
33023;DHT22;19390;51.460;5.710;2024-02-16T07:40:48;13.10;99.90
33023;DHT22;19390;51.460;5.710;2024-02-16T07:43:16;13.10;99.90
33023;DHT22;19390;51.460;5.710;2024-02-16T07:45:42;13.10;99.90
33023;DHT22;19390;51.460;5.710;2024-02-16T07:48:07;13.00;99.90
33023;DHT22;19390;51.460;5.710;2024-02-16T07:50:33;12.90;99.90
33023;DHT22;19390;51.460;5.710;2024-02-16T07:52:59;12.90;99.90
33023;DHT22;19390;51.460;5.710;2024-02-16T07:55:24;13.00;99.90
33023;DHT22;19390;51.460;5.710;2024-02-16T07:57:51;13.00;99.90
33023;DHT22;19390;51.460;5.710;2024-02-16T08:00:17;13.00;99.90
33023;DHT22;19390;51.460;5.710;2024-02-16T08:02:43;13.00;99.90
33023;DHT22;19390;51.460;5.710;2024-02-16T08:05:10;13.00;99.90
33023;DHT22;19390;51.460;5.710;2024-02-16T08:07:38;13.10;99.90
33023;DHT22;19390;51.460;5.710;2024-02-16T08:10:04;13.00;99.90
33023;DHT22;19390;51.460;5.710;2024-02-16T08:12:29;13.10;99.90
33023;DHT22;19390;51.460;5.710;2024-02-16T08:14:57;13.10;99.90
33023;DHT22;19390;51.460;5.710;2024-02-16T08:17:24;13.10;99.90
33023;DHT22;19390;51.460;5.710;2024-02-16T08:19:53;13.20;99.90
33023;DHT22;19390;51.460;5.710;2024-02-16T08:22:20;13.20;99.90
33023;DHT22;19390;51.460;5.710;2024-02-16T08:24:45;13.30;99.90
33023;DHT22;19390;51.460;5.710;2024-02-16T08:27:15;13.30;99.90
33023;DHT22;19390;51.460;5.710;2024-02-16T08:29:42;13.40;99.90
33023;DHT22;19390;51.460;5.710;2024-02-16T08:32:07;13.50;99.90
33023;DHT22;19390;51.460;5.710;2024-02-16T08:34:34;13.50;99.90
33023;DHT22;19390;51.460;5.710;2024-02-16T08:37:02;13.50;99.90
33023;DHT22;19390;51.460;5.710;2024-02-16T08:39:30;13.50;99.90
33023;DHT22;19390;51.460;5.710;2024-02-16T08:41:56;13.60;99.90
33023;DHT22;19390;51.460;5.710;2024-02-16T08:44:21;13.60;99.90
33023;DHT22;19390;51.460;5.710;2024-02-16T08:46:47;13.50;99.90
33023;DHT22;19390;51.460;5.710;2024-02-16T08:49:14;13.50;99.90
33023;DHT22;19390;51.460;5.710;2024-02-16T08:51:41;13.60;99.90
33023;DHT22;19390;51.460;5.710;2024-02-16T08:54:06;13.30;99.90
33023;DHT22;19390;51.460;5.710;2024-02-16T08:56:32;13.30;99.90
33023;DHT22;19390;51.460;5.710;2024-02-16T08:59:03;13.20;99.90
33023;DHT22;19390;51.460;5.710;2024-02-16T09:01:37;13.30;99.90
33023;DHT22;19390;51.460;5.710;2024-02-16T09:04:03;13.40;99.90
33023;DHT22;19390;51.460;5.710;2024-02-16T09:06:29;13.30;99.90
33023;DHT22;19390;51.460;5.710;2024-02-16T09:08:55;13.20;99.90
33023;DHT22;19390;51.460;5.710;2024-02-16T09:11:22;13.30;99.90
33023;DHT22;19390;51.460;5.710;2024-02-16T09:13:48;13.30;99.90
33023;DHT22;19390;51.460;5.710;2024-02-16T09:16:13;13.30;99.90
33023;DHT22;19390;51.460;5.710;2024-02-16T09:18:39;13.40;99.90
33023;DHT22;19390;51.460;5.710;2024-02-16T09:21:05;13.40;99.90
33023;DHT22;19390;51.460;5.710;2024-02-16T09:23:32;13.50;99.90
33023;DHT22;19390;51.460;5.710;2024-02-16T09:25:58;13.60;99.90
33023;DHT22;19390;51.460;5.710;2024-02-16T09:28:28;13.70;99.90
33023;DHT22;19390;51.460;5.710;2024-02-16T09:30:57;13.60;99.90
33023;DHT22;19390;51.460;5.710;2024-02-16T09:33:23;13.80;99.90
33023;DHT22;19390;51.460;5.710;2024-02-16T09:35:50;13.80;99.90
33023;DHT22;19390;51.460;5.710;2024-02-16T09:38:16;13.90;99.90
33023;DHT22;19390;51.460;5.710;2024-02-16T09:40:42;13.90;99.90
33023;DHT22;19390;51.460;5.710;2024-02-16T09:43:08;13.90;99.90
33023;DHT22;19390;51.460;5.710;2024-02-16T09:45:33;13.90;99.90
33023;DHT22;19390;51.460;5.710;2024-02-16T09:48:00;13.90;99.90
33023;DHT22;19390;51.460;5.710;2024-02-16T09:50:27;13.90;99.90
33023;DHT22;19390;51.460;5.710;2024-02-16T09:52:54;13.80;99.90
33023;DHT22;19390;51.460;5.710;2024-02-16T09:55:20;13.80;99.90
33023;DHT22;19390;51.460;5.710;2024-02-16T09:57:46;13.80;99.90
33023;DHT22;19390;51.460;5.710;2024-02-16T10:00:12;13.70;99.90
33023;DHT22;19390;51.460;5.710;2024-02-16T10:02:44;13.50;99.90
33023;DHT22;19390;51.460;5.710;2024-02-16T10:05:17;13.40;99.90
33023;DHT22;19390;51.460;5.710;2024-02-16T10:07:44;13.20;99.90
33023;DHT22;19390;51.460;5.710;2024-02-16T10:10:24;13.30;99.90
33023;DHT22;19390;51.460;5.710;2024-02-16T10:13:00;13.20;99.90
33023;DHT22;19390;51.460;5.710;2024-02-16T10:15:25;13.30;99.90
33023;DHT22;19390;51.460;5.710;2024-02-16T10:20:23;13.30;99.90
33023;DHT22;19390;51.460;5.710;2024-02-16T10:22:49;13.30;99.90
33023;DHT22;19390;51.460;5.710;2024-02-16T10:25:14;13.30;99.90
33023;DHT22;19390;51.460;5.710;2024-02-16T10:27:40;13.30;99.90
33023;DHT22;19390;51.460;5.710;2024-02-16T10:30:07;13.40;99.90
33023;DHT22;19390;51.460;5.710;2024-02-16T10:32:38;13.50;99.90
33023;DHT22;19390;51.460;5.710;2024-02-16T10:35:06;13.50;99.90
33023;DHT22;19390;51.460;5.710;2024-02-16T10:37:34;13.40;99.90
33023;DHT22;19390;51.460;5.710;2024-02-16T10:40:00;13.40;99.90
33023;DHT22;19390;51.460;5.710;2024-02-16T10:42:28;13.40;99.90
33023;DHT22;19390;51.460;5.710;2024-02-16T10:44:55;13.40;99.90
33023;DHT22;19390;51.460;5.710;2024-02-16T10:47:20;13.40;99.90
33023;DHT22;19390;51.460;5.710;2024-02-16T10:49:46;13.40;99.90
33023;DHT22;19390;51.460;5.710;2024-02-16T10:52:13;13.40;99.90
33023;DHT22;19390;51.460;5.710;2024-02-16T10:54:40;13.40;99.90
33023;DHT22;19390;51.460;5.710;2024-02-16T10:57:09;13.40;99.90
33023;DHT22;19390;51.460;5.710;2024-02-16T10:59:46;13.40;99.90
33023;DHT22;19390;51.460;5.710;2024-02-16T11:02:13;13.40;99.90
33023;DHT22;19390;51.460;5.710;2024-02-16T11:04:40;13.30;99.90
33023;DHT22;19390;51.460;5.710;2024-02-16T11:07:15;13.20;99.90
33023;DHT22;19390;51.460;5.710;2024-02-16T11:09:41;13.10;99.90
33023;DHT22;19390;51.460;5.710;2024-02-16T11:12:08;13.10;99.90
33023;DHT22;19390;51.460;5.710;2024-02-16T11:14:42;13.20;99.90
33023;DHT22;19390;51.460;5.710;2024-02-16T11:17:10;13.20;99.90
33023;DHT22;19390;51.460;5.710;2024-02-16T11:19:36;13.30;99.90
33023;DHT22;19390;51.460;5.710;2024-02-16T11:22:05;13.20;99.90
33023;DHT22;19390;51.460;5.710;2024-02-16T11:24:34;13.30;99.90
33023;DHT22;19390;51.460;5.710;2024-02-16T11:27:07;13.40;99.90
33023;DHT22;19390;51.460;5.710;2024-02-16T11:29:38;13.40;99.90
33023;DHT22;19390;51.460;5.710;2024-02-16T11:32:05;13.50;99.90
33023;DHT22;19390;51.460;5.710;2024-02-16T11:34:31;13.60;99.90
33023;DHT22;19390;51.460;5.710;2024-02-16T11:37:01;13.60;99.90
33023;DHT22;19390;51.460;5.710;2024-02-16T11:39:28;13.60;99.90
33023;DHT22;19390;51.460;5.710;2024-02-16T11:42:09;13.60;99.90
33023;DHT22;19390;51.460;5.710;2024-02-16T11:44:39;13.60;99.90
33023;DHT22;19390;51.460;5.710;2024-02-16T11:47:08;13.60;99.90
33023;DHT22;19390;51.460;5.710;2024-02-16T11:49:42;13.60;99.90
33023;DHT22;19390;51.460;5.710;2024-02-16T11:52:08;13.70;99.90
33023;DHT22;19390;51.460;5.710;2024-02-16T11:54:34;13.60;99.90
33023;DHT22;19390;51.460;5.710;2024-02-16T11:57:02;13.60;99.90
33023;DHT22;19390;51.460;5.710;2024-02-16T11:59:28;13.60;99.90
33023;DHT22;19390;51.460;5.710;2024-02-16T12:01:57;13.60;99.90
33023;DHT22;19390;51.460;5.710;2024-02-16T12:04:27;13.60;99.90
33023;DHT22;19390;51.460;5.710;2024-02-16T12:09:22;13.40;99.90
33023;DHT22;19390;51.460;5.710;2024-02-16T12:11:49;13.30;99.90
33023;DHT22;19390;51.460;5.710;2024-02-16T12:14:20;13.20;99.90
33023;DHT22;19390;51.460;5.710;2024-02-16T12:16:47;13.20;99.90
33023;DHT22;19390;51.460;5.710;2024-02-16T12:19:13;13.10;99.90
33023;DHT22;19390;51.460;5.710;2024-02-16T12:21:39;13.00;99.90
33023;DHT22;19390;51.460;5.710;2024-02-16T12:24:05;13.10;99.90
33023;DHT22;19390;51.460;5.710;2024-02-16T12:26:34;13.00;99.90
33023;DHT22;19390;51.460;5.710;2024-02-16T12:28:59;13.00;99.90
33023;DHT22;19390;51.460;5.710;2024-02-16T12:31:25;13.10;99.90
33023;DHT22;19390;51.460;5.710;2024-02-16T12:33:52;13.00;99.90
33023;DHT22;19390;51.460;5.710;2024-02-16T12:36:17;13.10;99.90
33023;DHT22;19390;51.460;5.710;2024-02-16T12:38:43;13.00;99.90
33023;DHT22;19390;51.460;5.710;2024-02-16T12:41:09;13.00;99.90
33023;DHT22;19390;51.460;5.710;2024-02-16T12:43:34;12.90;99.90
33023;DHT22;19390;51.460;5.710;2024-02-16T12:46:00;12.90;99.90
33023;DHT22;19390;51.460;5.710;2024-02-16T12:48:29;12.90;99.90
33023;DHT22;19390;51.460;5.710;2024-02-16T12:50:55;12.90;99.90
33023;DHT22;19390;51.460;5.710;2024-02-16T12:53:20;12.90;99.90
33023;DHT22;19390;51.460;5.710;2024-02-16T12:55:50;12.90;99.90
33023;DHT22;19390;51.460;5.710;2024-02-16T12:58:16;13.00;99.90
33023;DHT22;19390;51.460;5.710;2024-02-16T13:00:41;12.90;99.90
33023;DHT22;19390;51.460;5.710;2024-02-16T13:03:07;12.90;99.90
33023;DHT22;19390;51.460;5.710;2024-02-16T13:05:33;12.90;99.90
33023;DHT22;19390;51.460;5.710;2024-02-16T13:07:59;12.90;99.90
33023;DHT22;19390;51.460;5.710;2024-02-16T13:10:25;12.90;99.90
33023;DHT22;19390;51.460;5.710;2024-02-16T13:12:51;13.00;99.90
33023;DHT22;19390;51.460;5.710;2024-02-16T13:15:16;12.90;99.90
33023;DHT22;19390;51.460;5.710;2024-02-16T13:17:42;13.00;99.90
33023;DHT22;19390;51.460;5.710;2024-02-16T13:20:08;13.00;99.90
33023;DHT22;19390;51.460;5.710;2024-02-16T13:22:38;13.00;99.90
33023;DHT22;19390;51.460;5.710;2024-02-16T13:25:04;13.00;99.90
33023;DHT22;19390;51.460;5.710;2024-02-16T13:27:33;13.00;99.90
33023;DHT22;19390;51.460;5.710;2024-02-16T13:30:02;13.10;99.90
33023;DHT22;19390;51.460;5.710;2024-02-16T13:32:31;13.00;99.90
33023;DHT22;19390;51.460;5.710;2024-02-16T13:34:56;13.00;99.90
33023;DHT22;19390;51.460;5.710;2024-02-16T13:37:22;13.00;99.90
33023;DHT22;19390;51.460;5.710;2024-02-16T13:39:47;12.90;99.90
33023;DHT22;19390;51.460;5.710;2024-02-16T13:42:13;12.80;99.90
33023;DHT22;19390;51.460;5.710;2024-02-16T13:44:39;12.90;99.90
33023;DHT22;19390;51.460;5.710;2024-02-16T13:47:05;12.90;99.90
33023;DHT22;19390;51.460;5.710;2024-02-16T13:49:30;12.80;99.90
33023;DHT22;19390;51.460;5.710;2024-02-16T13:51:56;12.80;99.90
33023;DHT22;19390;51.460;5.710;2024-02-16T13:54:25;12.80;99.90
33023;DHT22;19390;51.460;5.710;2024-02-16T13:56:50;12.70;99.90
33023;DHT22;19390;51.460;5.710;2024-02-16T13:59:16;12.70;99.90
33023;DHT22;19390;51.460;5.710;2024-02-16T14:01:42;12.70;99.90
33023;DHT22;19390;51.460;5.710;2024-02-16T14:04:08;12.70;99.90
33023;DHT22;19390;51.460;5.710;2024-02-16T14:06:34;12.70;99.90
33023;DHT22;19390;51.460;5.710;2024-02-16T14:09:01;12.70;99.90
33023;DHT22;19390;51.460;5.710;2024-02-16T14:11:27;12.70;99.90
33023;DHT22;19390;51.460;5.710;2024-02-16T14:13:52;12.70;99.90
33023;DHT22;19390;51.460;5.710;2024-02-16T14:16:18;12.80;99.90
33023;DHT22;19390;51.460;5.710;2024-02-16T14:18:43;12.90;99.90
33023;DHT22;19390;51.460;5.710;2024-02-16T14:21:09;12.90;99.90
33023;DHT22;19390;51.460;5.710;2024-02-16T14:23:35;12.90;99.90
33023;DHT22;19390;51.460;5.710;2024-02-16T14:26:01;12.90;99.90
33023;DHT22;19390;51.460;5.710;2024-02-16T14:28:26;12.90;99.90
33023;DHT22;19390;51.460;5.710;2024-02-16T14:30:52;12.80;99.90
33023;DHT22;19390;51.460;5.710;2024-02-16T14:33:18;12.80;99.90
33023;DHT22;19390;51.460;5.710;2024-02-16T14:35:43;12.80;99.90
33023;DHT22;19390;51.460;5.710;2024-02-16T14:38:09;12.80;99.90
33023;DHT22;19390;51.460;5.710;2024-02-16T14:40:35;12.80;99.90
33023;DHT22;19390;51.460;5.710;2024-02-16T14:43:01;12.80;99.90
33023;DHT22;19390;51.460;5.710;2024-02-16T14:45:27;12.80;99.90
33023;DHT22;19390;51.460;5.710;2024-02-16T14:47:53;12.80;99.90
33023;DHT22;19390;51.460;5.710;2024-02-16T14:50:18;12.70;99.90
33023;DHT22;19390;51.460;5.710;2024-02-16T14:52:44;12.70;99.90
33023;DHT22;19390;51.460;5.710;2024-02-16T14:55:11;12.70;99.90
33023;DHT22;19390;51.460;5.710;2024-02-16T14:57:43;12.70;99.90
33023;DHT22;19390;51.460;5.710;2024-02-16T15:00:10;12.60;99.90
33023;DHT22;19390;51.460;5.710;2024-02-16T15:02:37;12.70;99.90
33023;DHT22;19390;51.460;5.710;2024-02-16T15:05:06;12.60;99.90
33023;DHT22;19390;51.460;5.710;2024-02-16T15:07:32;12.60;99.90
33023;DHT22;19390;51.460;5.710;2024-02-16T15:09:58;12.60;99.90
33023;DHT22;19390;51.460;5.710;2024-02-16T15:12:24;12.60;99.90
33023;DHT22;19390;51.460;5.710;2024-02-16T15:14:50;12.50;99.90
33023;DHT22;19390;51.460;5.710;2024-02-16T15:17:16;12.50;99.90
33023;DHT22;19390;51.460;5.710;2024-02-16T15:19:42;12.50;99.90
33023;DHT22;19390;51.460;5.710;2024-02-16T15:22:08;12.50;99.90
33023;DHT22;19390;51.460;5.710;2024-02-16T15:24:34;12.40;99.90
33023;DHT22;19390;51.460;5.710;2024-02-16T15:27:00;12.50;99.90
33023;DHT22;19390;51.460;5.710;2024-02-16T15:29:27;12.50;99.90
33023;DHT22;19390;51.460;5.710;2024-02-16T15:31:52;12.50;99.90